createdAt,value
2019-01-30T00:01:28.770Z,25.00
2019-01-30T00:03:58.764Z,29.00
2019-01-30T00:06:30.687Z,27.45
2019-01-30T00:08:58.806Z,29.80
2019-01-30T00:11:26.896Z,25.00
2019-01-30T00:13:58.313Z,34.37
2019-01-30T00:16:26.638Z,29.95
2019-01-30T00:18:54.858Z,22.67
2019-01-30T00:21:28.271Z,24.40
2019-01-30T00:23:57.407Z,22.77
2019-01-30T00:26:25.501Z,24.47
2019-01-30T00:28:53.601Z,24.10
2019-01-30T00:31:21.706Z,26.50
2019-01-30T00:33:52.761Z,23.98
2019-01-30T00:36:22.527Z,25.37
2019-01-30T00:38:53.740Z,23.30
2019-01-30T00:41:21.873Z,22.42
2019-01-30T00:43:55.880Z,18.57
2019-01-30T00:46:24.801Z,27.07
2019-01-30T00:48:52.907Z,19.10
2019-01-30T00:51:23.137Z,22.27
2019-01-30T00:53:52.864Z,20.00
2019-01-30T00:56:20.961Z,21.05
2019-01-30T00:58:49.077Z,20.08
2019-01-30T01:01:17.186Z,25.80
2019-01-30T01:03:47.087Z,23.67
2019-01-30T01:06:15.280Z,29.00
2019-01-30T01:08:43.388Z,26.40
2019-01-30T01:11:16.844Z,25.60
2019-01-30T01:13:43.281Z,25.82
2019-01-30T01:16:11.430Z,25.82
2019-01-30T01:18:45.363Z,26.77
2019-01-30T01:21:13.464Z,27.10
2019-01-30T01:23:44.528Z,28.60
2019-01-30T01:26:14.314Z,27.37
2019-01-30T01:28:43.665Z,22.75
2019-01-30T01:31:14.136Z,27.67
2019-01-30T01:33:42.222Z,25.97
2019-01-30T01:36:10.336Z,29.80
2019-01-30T01:38:38.532Z,28.20
2019-01-30T01:41:06.737Z,26.00
2019-01-30T01:43:35.062Z,27.02
2019-01-30T01:46:12.200Z,26.12
2019-01-30T01:48:40.314Z,27.15
2019-01-30T01:51:08.400Z,29.80
2019-01-30T01:53:41.846Z,28.00
2019-01-30T01:56:09.922Z,33.93
2019-01-30T01:58:38.030Z,30.12
2019-01-30T02:01:06.140Z,27.65
2019-01-30T02:03:38.800Z,26.80
2019-01-30T02:06:08.536Z,27.15
2019-01-30T02:08:36.636Z,25.75
2019-01-30T02:11:07.738Z,27.25
2019-01-30T02:13:36.919Z,29.50
2019-01-30T02:16:12.614Z,29.48
2019-01-30T02:18:40.828Z,27.35
2019-01-30T02:21:08.966Z,22.40
2019-01-30T02:23:38.541Z,28.10
2019-01-30T02:26:09.488Z,28.62
2019-01-30T02:28:38.089Z,24.87
2019-01-30T02:31:11.540Z,28.35
2019-01-30T02:33:39.643Z,28.98
2019-01-30T02:36:07.752Z,26.05
2019-01-30T02:38:35.836Z,31.40
2019-01-30T02:41:03.953Z,27.50
2019-01-30T02:43:34.481Z,24.40
2019-01-30T02:46:04.270Z,23.45
2019-01-30T02:48:36.854Z,25.15
2019-01-30T02:51:06.556Z,26.42
2019-01-30T02:53:34.663Z,22.05
2019-01-30T02:56:04.230Z,26.62
2019-01-30T02:58:35.206Z,25.12
2019-01-30T03:01:04.523Z,24.40
2019-01-30T03:03:35.199Z,30.32
2019-01-30T03:06:03.409Z,26.55
2019-01-30T03:08:32.566Z,30.82
2019-01-30T03:11:02.305Z,26.87
2019-01-30T03:13:39.741Z,22.98
2019-01-30T03:16:08.149Z,28.23
2019-01-30T03:18:36.624Z,26.10
2019-01-30T03:21:07.809Z,25.00
2019-01-30T03:23:40.252Z,30.05
2019-01-30T03:26:08.362Z,22.48
2019-01-30T03:28:36.459Z,29.82
2019-01-30T03:31:17.448Z,28.02
2019-01-30T03:33:37.237Z,25.48
2019-01-30T03:36:09.305Z,25.75
2019-01-30T03:38:37.395Z,25.55
2019-01-30T03:41:06.755Z,27.32
2019-01-30T03:43:34.835Z,31.48
2019-01-30T03:46:03.872Z,26.27
2019-01-30T03:48:33.510Z,27.58
2019-01-30T03:51:05.813Z,26.30
2019-01-30T03:53:33.992Z,25.10
2019-01-30T03:56:02.101Z,27.27
2019-01-30T03:58:37.561Z,27.13
2019-01-30T04:01:07.279Z,29.10
2019-01-30T04:03:37.032Z,24.65
2019-01-30T04:06:08.270Z,21.90
2019-01-30T04:08:39.694Z,32.38
2019-01-30T04:11:09.929Z,26.10
2019-01-30T04:13:38.039Z,27.77
2019-01-30T04:16:07.808Z,28.60
2019-01-30T04:21:05.574Z,28.70
2019-01-30T04:23:33.750Z,30.45
2019-01-30T04:26:02.754Z,26.60
2019-01-30T04:28:30.886Z,29.52
2019-01-30T04:30:59.000Z,33.18
2019-01-30T04:33:27.160Z,29.10
2019-01-30T04:35:55.266Z,29.35
2019-01-30T04:38:23.352Z,29.77
2019-01-30T04:40:54.322Z,29.67
2019-01-30T04:43:22.697Z,31.52
2019-01-30T04:45:50.808Z,31.77
2019-01-30T04:48:19.460Z,29.32
2019-01-30T04:50:47.559Z,29.15
2019-01-30T04:53:15.707Z,30.30
2019-01-30T04:55:43.899Z,31.70
2019-01-30T04:58:14.310Z,30.52
2019-01-30T05:00:44.065Z,29.27
2019-01-30T05:03:15.419Z,29.90
2019-01-30T05:05:46.979Z,32.33
2019-01-30T05:08:17.465Z,34.73
2019-01-30T05:10:51.234Z,32.63
2019-01-30T05:13:21.124Z,34.73
2019-01-30T05:15:49.220Z,31.02
2019-01-30T05:18:17.322Z,35.90
2019-01-30T05:20:47.042Z,34.30
2019-01-30T05:23:17.964Z,39.38
2019-01-30T05:25:53.847Z,32.67
2019-01-30T05:28:23.856Z,33.25
2019-01-30T05:30:51.967Z,34.33
2019-01-30T05:33:22.676Z,38.25
2019-01-30T05:35:52.443Z,37.55
2019-01-30T05:38:20.597Z,34.58
2019-01-30T05:40:50.223Z,32.10
2019-01-30T05:43:18.321Z,36.23
2019-01-30T05:45:48.092Z,31.00
2019-01-30T05:48:18.285Z,35.65
2019-01-30T05:53:13.695Z,33.25
2019-01-30T05:55:41.833Z,36.60
2019-01-30T05:58:11.286Z,33.80
2019-01-30T06:00:42.856Z,36.70
2019-01-30T06:03:10.968Z,33.10
2019-01-30T06:05:39.185Z,28.77
2019-01-30T06:08:08.736Z,33.05
2019-01-30T06:10:38.473Z,33.40
2019-01-30T06:13:06.653Z,36.10
2019-01-30T06:15:37.409Z,39.30
2019-01-30T06:18:08.182Z,39.98
2019-01-30T06:20:36.653Z,38.45
2019-01-30T06:23:04.825Z,39.58
2019-01-30T06:25:34.707Z,36.35
2019-01-30T06:28:06.408Z,36.98
2019-01-30T06:30:36.025Z,36.13
2019-01-30T06:33:05.782Z,38.25
2019-01-30T06:35:34.097Z,36.50
2019-01-30T06:38:06.573Z,35.85
2019-01-30T06:40:34.696Z,32.25
2019-01-30T06:43:06.102Z,36.80
2019-01-30T06:45:35.255Z,35.33
2019-01-30T06:48:09.517Z,39.15
2019-01-30T06:50:37.617Z,36.53
2019-01-30T06:53:05.697Z,36.33
2019-01-30T06:55:35.532Z,36.40
2019-01-30T06:58:03.679Z,35.80
2019-01-30T07:00:35.110Z,38.73
2019-01-30T07:03:03.274Z,38.28
2019-01-30T07:05:31.373Z,38.50
2019-01-30T07:07:59.475Z,34.80
2019-01-30T07:10:30.209Z,40.30
2019-01-30T07:12:58.617Z,35.17
2019-01-30T07:15:28.369Z,34.25
2019-01-30T07:17:56.457Z,41.13
2019-01-30T07:20:27.674Z,36.05
2019-01-30T07:22:58.458Z,42.93
2019-01-30T07:25:30.722Z,37.45
2019-01-30T07:28:00.114Z,38.08
2019-01-30T07:30:29.375Z,39.50
2019-01-30T07:32:58.198Z,38.30
2019-01-30T07:35:26.391Z,33.50
2019-01-30T07:37:54.728Z,39.67
2019-01-30T07:40:26.216Z,35.83
2019-01-30T07:42:56.996Z,38.08
2019-01-30T07:45:32.832Z,38.90
2019-01-30T07:48:03.373Z,42.98
2019-01-30T07:50:31.466Z,37.88
2019-01-30T07:53:02.148Z,40.20
2019-01-30T07:55:33.706Z,39.35
2019-01-30T07:58:02.037Z,41.55
2019-01-30T08:00:33.582Z,43.00
2019-01-30T08:03:04.544Z,44.27
2019-01-30T08:05:38.859Z,37.08
2019-01-30T08:08:07.080Z,43.30
2019-01-30T08:10:35.193Z,43.78
2019-01-30T08:13:03.297Z,40.80
2019-01-30T08:15:31.409Z,41.63
2019-01-30T08:18:01.054Z,38.98
2019-01-30T08:20:29.221Z,39.00
2019-01-30T08:23:01.067Z,41.35
2019-01-30T08:25:29.539Z,38.42
2019-01-30T08:27:58.136Z,38.50
2019-01-30T08:30:31.970Z,41.13
2019-01-30T08:33:05.627Z,40.65
2019-01-30T08:35:31.622Z,38.48
2019-01-30T08:38:04.505Z,39.83
2019-01-30T08:40:34.313Z,44.13
2019-01-30T08:43:08.041Z,37.55
2019-01-30T08:45:35.313Z,41.00
2019-01-30T08:48:05.201Z,48.45
2019-01-30T08:50:34.160Z,40.50
2019-01-30T08:53:06.673Z,42.08
2019-01-30T08:55:37.719Z,39.45
2019-01-30T08:58:09.993Z,39.20
2019-01-30T09:00:38.556Z,36.65
2019-01-30T09:03:14.507Z,40.28
2019-01-30T09:05:37.467Z,43.40
2019-01-30T09:08:05.583Z,45.52
2019-01-30T09:10:35.311Z,42.05
2019-01-30T09:13:05.121Z,42.27
2019-01-30T09:15:33.225Z,44.15
2019-01-30T09:18:02.918Z,40.73
2019-01-30T09:20:30.987Z,44.98
2019-01-30T09:23:02.625Z,43.87
2019-01-30T09:25:38.117Z,40.58
2019-01-30T09:28:11.631Z,44.35
2019-01-30T09:30:39.785Z,42.83
2019-01-30T09:33:09.669Z,40.03
2019-01-30T09:35:37.823Z,42.27
2019-01-30T09:38:06.305Z,44.05
2019-01-30T09:40:34.433Z,45.55
2019-01-30T09:43:05.294Z,43.40
2019-01-30T09:45:33.466Z,44.15
2019-01-30T09:48:04.382Z,46.00
2019-01-30T09:50:37.092Z,46.75
2019-01-30T09:53:07.185Z,48.75
2019-01-30T09:55:35.341Z,50.12
2019-01-30T09:58:03.623Z,55.40
2019-01-30T10:00:38.540Z,48.58
2019-01-30T10:03:06.625Z,45.03
2019-01-30T10:05:34.959Z,51.60
2019-01-30T10:08:05.930Z,48.98
2019-01-30T10:10:37.675Z,54.18
2019-01-30T10:13:09.414Z,44.33
2019-01-30T10:15:38.850Z,51.50
2019-01-30T10:18:06.995Z,42.55
2019-01-30T10:20:35.873Z,48.73
2019-01-30T10:23:06.232Z,49.33
2019-01-30T10:28:02.703Z,46.42
2019-01-30T10:30:32.074Z,49.48
2019-01-30T10:33:00.167Z,51.73
2019-01-30T10:35:31.185Z,51.95
2019-01-30T10:37:59.290Z,44.18
2019-01-30T10:40:31.804Z,54.20
2019-01-30T10:43:00.012Z,50.08
2019-01-30T10:45:28.146Z,50.70
2019-01-30T10:47:56.256Z,46.25
2019-01-30T10:50:29.244Z,49.48
2019-01-30T10:53:01.568Z,52.70
2019-01-30T10:55:30.948Z,54.40
2019-01-30T10:57:59.606Z,55.23
2019-01-30T11:00:35.936Z,52.65
2019-01-30T11:03:04.084Z,49.58
2019-01-30T11:05:32.190Z,42.08
2019-01-30T11:08:02.063Z,38.83
2019-01-30T11:10:30.205Z,45.70
2019-01-30T11:12:58.312Z,50.55
2019-01-30T11:15:27.490Z,41.90
2019-01-30T11:17:55.573Z,49.80
2019-01-30T11:20:27.010Z,44.83
2019-01-30T11:22:59.810Z,43.02
2019-01-30T11:25:33.338Z,48.28
2019-01-30T11:28:02.384Z,47.13
2019-01-30T11:30:30.520Z,50.12
2019-01-30T11:33:03.952Z,46.00
2019-01-30T11:35:38.026Z,46.45
2019-01-30T11:38:08.969Z,46.63
2019-01-30T11:40:40.687Z,44.95
2019-01-30T11:43:08.968Z,49.60
2019-01-30T11:45:40.236Z,53.68
2019-01-30T11:48:08.061Z,57.13
2019-01-30T11:50:36.402Z,56.30
2019-01-30T11:53:07.305Z,56.88
2019-01-30T11:55:39.117Z,58.95
2019-01-30T11:58:14.418Z,56.33
2019-01-30T12:00:45.797Z,61.60
2019-01-30T12:03:13.942Z,61.58
2019-01-30T12:05:42.367Z,59.65
2019-01-30T12:08:10.604Z,66.00
2019-01-30T12:10:38.731Z,68.45
2019-01-30T12:13:17.917Z,63.10
2019-01-30T12:15:47.249Z,63.00
2019-01-30T12:18:15.333Z,65.70
2019-01-30T12:20:45.260Z,59.45
2019-01-30T12:23:13.402Z,60.92
2019-01-30T12:25:45.854Z,65.85
2019-01-30T12:28:18.331Z,63.40
2019-01-30T12:30:46.489Z,64.92
2019-01-30T12:33:20.559Z,66.35
2019-01-30T12:35:49.138Z,67.22
2019-01-30T12:38:17.234Z,65.80
2019-01-30T12:40:45.333Z,65.28
2019-01-30T12:43:13.530Z,58.83
2019-01-30T12:45:41.677Z,64.92
2019-01-30T12:48:10.755Z,66.15
2019-01-30T12:50:40.893Z,69.85
2019-01-30T12:53:11.936Z,70.85
2019-01-30T12:55:43.395Z,64.40
2019-01-30T12:58:11.563Z,67.58
2019-01-30T13:00:40.543Z,67.55
2019-01-30T13:03:10.357Z,69.37
2019-01-30T13:05:38.513Z,68.55
2019-01-30T13:08:11.391Z,71.77
2019-01-30T13:10:39.579Z,69.27
2019-01-30T13:13:11.102Z,69.17
2019-01-30T13:15:39.206Z,72.05
2019-01-30T13:18:17.800Z,71.87
2019-01-30T13:20:38.616Z,59.15
2019-01-30T13:23:06.781Z,67.92
2019-01-30T13:25:38.930Z,68.92
2019-01-30T13:28:10.031Z,63.05
2019-01-30T13:30:38.927Z,63.92
2019-01-30T13:33:07.319Z,64.55
2019-01-30T13:35:36.154Z,63.78
2019-01-30T13:38:08.244Z,60.75
2019-01-30T13:40:37.036Z,63.50
2019-01-30T13:43:06.774Z,72.32
2019-01-30T13:45:38.152Z,59.25
2019-01-30T13:48:07.673Z,63.35
2019-01-30T13:50:36.620Z,54.73
2019-01-30T13:53:04.814Z,60.17
2019-01-30T13:55:32.958Z,58.80
2019-01-30T13:58:04.051Z,57.30
2019-01-30T14:00:34.799Z,54.50
2019-01-30T14:03:03.049Z,57.98
2019-01-30T14:05:31.576Z,62.03
2019-01-30T14:07:59.690Z,53.65
2019-01-30T14:10:27.784Z,61.95
2019-01-30T14:12:59.366Z,59.33
2019-01-30T14:15:29.372Z,57.38
2019-01-30T14:17:59.186Z,54.40
2019-01-30T14:20:27.351Z,57.45
2019-01-30T14:22:55.531Z,57.23
2019-01-30T14:25:23.705Z,60.40
2019-01-30T14:27:51.901Z,65.10
2019-01-30T14:30:21.431Z,56.70
2019-01-30T14:32:49.527Z,55.60
2019-01-30T14:35:19.453Z,61.23
2019-01-30T14:37:47.681Z,60.05
2019-01-30T14:40:20.830Z,54.98
2019-01-30T14:42:49.080Z,59.33
2019-01-30T14:45:19.317Z,52.62
2019-01-30T14:47:50.783Z,55.55
2019-01-30T14:50:20.056Z,48.15
2019-01-30T14:52:48.297Z,51.45
2019-01-30T14:55:16.690Z,60.63
2019-01-30T14:57:44.863Z,51.58
2019-01-30T15:00:14.951Z,44.38
2019-01-30T15:05:22.386Z,60.17
2019-01-30T15:07:46.668Z,56.68
2019-01-30T15:16:41.890Z,47.67
2019-01-30T15:19:10.037Z,46.33
2019-01-30T15:21:38.202Z,44.15
2019-01-30T15:24:06.362Z,45.78
2019-01-30T15:26:34.475Z,42.00
2019-01-30T15:29:05.523Z,45.75
2019-01-30T15:31:35.544Z,43.60
2019-01-30T15:34:03.699Z,43.23
2019-01-30T15:36:31.819Z,45.88
2019-01-30T15:39:01.035Z,37.40
2019-01-30T15:41:36.412Z,41.75
2019-01-30T15:44:04.541Z,37.33
2019-01-30T15:46:32.654Z,45.38
2019-01-30T15:49:00.745Z,47.85
2019-01-30T15:51:35.853Z,46.23
2019-01-30T15:54:08.723Z,49.35
2019-01-30T15:56:36.838Z,46.45
2019-01-30T15:59:05.325Z,48.75
2019-01-30T16:01:33.484Z,49.93
2019-01-30T16:04:01.584Z,49.83
2019-01-30T16:06:31.544Z,50.92
2019-01-30T16:09:13.027Z,45.73
2019-01-30T16:15:09.386Z,45.70
2019-01-30T16:17:37.536Z,44.60
2019-01-30T16:20:07.289Z,46.88
2019-01-30T16:22:37.068Z,49.53
2019-01-30T16:25:09.300Z,55.52
2019-01-30T16:27:38.960Z,48.30
2019-01-30T16:30:08.746Z,52.20
2019-01-30T16:32:36.840Z,57.85
2019-01-30T16:35:06.674Z,46.25
2019-01-30T16:37:34.770Z,50.08
2019-01-30T16:40:03.553Z,50.58
2019-01-30T16:42:31.776Z,46.88
2019-01-30T16:45:02.403Z,65.32
2019-01-30T16:47:30.932Z,58.23
2019-01-30T16:49:59.103Z,54.85
2019-01-30T16:52:33.877Z,51.65
2019-01-30T16:55:02.029Z,49.73
2019-01-30T16:57:30.413Z,49.98
2019-01-30T17:00:00.334Z,46.65
2019-01-30T17:02:28.733Z,48.48
2019-01-30T17:04:56.841Z,48.48
2019-01-30T17:07:25.246Z,52.23
2019-01-30T17:09:53.649Z,44.00
2019-01-30T17:15:47.793Z,41.15
2019-01-30T17:18:17.590Z,37.60
2019-01-30T17:20:49.896Z,34.88
2019-01-30T17:23:24.321Z,38.78
2019-01-30T17:25:50.253Z,36.28
2019-01-30T17:28:18.857Z,38.05
2019-01-30T17:30:48.823Z,33.10
2019-01-30T17:33:19.071Z,39.33
2019-01-30T17:35:47.969Z,39.05
2019-01-30T17:38:20.778Z,35.07
2019-01-30T17:40:46.117Z,32.38
2019-01-30T17:43:15.211Z,28.67
2019-01-30T17:45:43.321Z,30.15
2019-01-30T17:48:14.271Z,34.10
2019-01-30T17:50:43.349Z,35.30
2019-01-30T17:53:12.715Z,58.87
2019-01-30T17:55:40.831Z,27.70
2019-01-30T17:58:11.739Z,31.97
2019-01-30T18:00:46.839Z,27.32
2019-01-30T18:03:14.798Z,26.05
2019-01-30T18:05:49.437Z,27.27
2019-01-30T18:08:18.059Z,22.70
2019-01-30T18:10:46.721Z,24.82
2019-01-30T18:13:17.293Z,23.50
2019-01-30T18:15:45.479Z,22.80
2019-01-30T18:18:13.596Z,24.50
2019-01-30T18:20:44.473Z,20.65
2019-01-30T18:23:12.602Z,19.27
2019-01-30T18:25:43.426Z,20.97
2019-01-30T18:28:11.597Z,18.30
2019-01-30T18:30:42.807Z,16.97
2019-01-30T18:33:13.657Z,16.95
2019-01-30T18:35:41.754Z,13.00
2019-01-30T18:38:10.739Z,15.45
2019-01-30T18:40:38.960Z,9.68
2019-01-30T18:43:07.056Z,13.48
2019-01-30T18:45:35.154Z,9.25
2019-01-30T18:48:04.478Z,11.30
2019-01-30T18:50:33.608Z,12.90
2019-01-30T18:53:01.709Z,10.32
2019-01-30T18:55:31.097Z,12.00
2019-01-30T18:58:01.153Z,12.55
2019-01-30T19:00:30.884Z,11.55
2019-01-30T19:03:00.061Z,9.98
2019-01-30T19:05:28.772Z,11.70
2019-01-30T19:07:56.906Z,9.85
2019-01-30T19:10:25.161Z,11.45
2019-01-30T19:12:56.468Z,10.85
2019-01-30T19:15:26.177Z,13.05
2019-01-30T19:17:54.310Z,11.65
2019-01-30T19:20:25.529Z,14.23
2019-01-30T19:22:56.798Z,10.90
2019-01-30T19:25:26.368Z,13.35
2019-01-30T19:27:57.882Z,11.63
2019-01-30T19:30:26.952Z,10.13
2019-01-30T19:32:55.177Z,10.78
2019-01-30T19:35:24.530Z,13.62
2019-01-30T19:37:54.562Z,11.38
2019-01-30T19:40:25.756Z,14.70
2019-01-30T19:42:53.929Z,10.93
2019-01-30T19:45:25.592Z,13.78
2019-01-30T19:47:59.998Z,12.35
2019-01-30T19:50:32.230Z,9.05
2019-01-30T19:53:01.962Z,11.43
2019-01-30T19:55:30.119Z,11.57
2019-01-30T19:57:59.830Z,10.30
2019-01-30T20:00:29.306Z,11.73
2019-01-30T20:02:57.731Z,11.30
2019-01-30T20:05:25.849Z,10.38
2019-01-30T20:07:53.953Z,8.38
2019-01-30T20:10:32.957Z,13.75
2019-01-30T20:12:58.629Z,8.48
2019-01-30T20:15:28.864Z,12.65
2019-01-30T20:17:56.673Z,6.95
2019-01-30T20:20:33.555Z,9.35
2019-01-30T20:23:05.901Z,7.83
2019-01-30T20:25:37.701Z,7.90
2019-01-30T20:28:06.823Z,8.38
2019-01-30T20:30:34.915Z,6.65
2019-01-30T20:33:03.023Z,12.18
2019-01-30T20:35:32.830Z,9.30
2019-01-30T20:38:01.705Z,7.45
2019-01-30T20:40:32.827Z,8.38
2019-01-30T20:43:00.919Z,8.70
2019-01-30T20:45:33.733Z,11.57
2019-01-30T20:48:02.196Z,12.05
2019-01-30T20:50:33.940Z,9.43
2019-01-30T20:53:02.033Z,12.65
2019-01-30T20:55:34.384Z,10.20
2019-01-30T20:58:04.105Z,18.07
2019-01-30T21:00:35.466Z,13.72
2019-01-30T21:03:04.299Z,14.23
2019-01-30T21:05:34.057Z,11.68
2019-01-30T21:08:02.441Z,14.87
2019-01-30T21:10:38.113Z,13.68
2019-01-30T21:13:06.925Z,11.75
2019-01-30T21:15:35.014Z,15.60
2019-01-30T21:18:03.327Z,16.70
2019-01-30T21:20:31.477Z,15.98
2019-01-30T21:23:03.230Z,15.40
2019-01-30T21:31:46.715Z,13.65
2019-01-30T21:34:18.493Z,12.45
2019-01-30T21:36:48.786Z,10.85
2019-01-30T21:39:16.956Z,10.58
2019-01-30T21:41:45.050Z,12.35
2019-01-30T21:44:13.722Z,11.65
2019-01-30T21:46:46.670Z,13.80
2019-01-30T21:49:18.175Z,11.40
2019-01-30T21:51:46.273Z,10.85
2019-01-30T21:54:16.030Z,10.00
2019-01-30T21:59:13.382Z,6.70
2019-01-30T22:01:41.465Z,11.48
2019-01-30T22:04:10.664Z,9.65
2019-01-30T22:06:40.158Z,9.33
2019-01-30T22:09:08.276Z,11.57
2019-01-30T22:11:36.370Z,11.10
2019-01-30T22:14:06.385Z,11.45
2019-01-30T22:16:35.547Z,16.35
2019-01-30T22:19:03.641Z,8.63
2019-01-30T22:21:38.654Z,8.73
2019-01-30T22:24:06.746Z,9.05
2019-01-30T22:26:36.518Z,13.53
2019-01-30T22:29:04.619Z,9.45
2019-01-30T22:31:32.712Z,11.50
2019-01-30T22:34:00.949Z,13.55
2019-01-30T22:36:30.685Z,12.43
2019-01-30T22:39:01.280Z,11.60
2019-01-30T22:41:30.966Z,10.28
2019-01-30T22:43:59.062Z,13.15
2019-01-30T22:46:28.597Z,13.53
2019-01-30T22:48:57.721Z,13.78
2019-01-30T22:51:25.843Z,13.05
2019-01-30T22:53:53.951Z,15.10
2019-01-30T22:56:25.502Z,18.87
2019-01-30T22:58:53.580Z,19.48
2019-01-30T23:01:23.326Z,19.48
2019-01-30T23:03:53.050Z,17.32
2019-01-30T23:06:24.799Z,18.80
2019-01-30T23:08:57.190Z,16.90
2019-01-30T23:11:26.933Z,19.30
2019-01-30T23:13:55.111Z,18.67
2019-01-30T23:16:24.837Z,15.88
2019-01-30T23:19:00.537Z,13.72
2019-01-30T23:21:31.482Z,21.05
2019-01-30T23:24:19.465Z,15.68
2019-01-30T23:30:34.039Z,16.32
2019-01-30T23:33:21.975Z,13.35
2019-01-30T23:35:59.702Z,15.78
2019-01-30T23:38:34.274Z,16.57
2019-01-30T23:41:00.996Z,19.90
2019-01-30T23:43:47.303Z,18.75
2019-01-30T23:46:22.977Z,15.78
2019-01-30T23:48:55.391Z,16.25
2019-01-30T23:51:39.695Z,19.42
2019-01-30T23:54:19.970Z,17.12
2019-01-30T23:56:55.474Z,26.17
2019-01-30T23:59:25.191Z,20.88
